Terminal Aerodrome Forecast
Issued by NWS Jackson, MS

Home | Current Version | Previous Version | Text Only | Print | Product List | Glossary On
Versions: 1 2 3 4 5 6 7 8 9 10 11 12 13 14 15 16 17
000
FTUS44 KJAN 162339
TAFGWO
TAF
KGWO 162339Z 1700/1724 17006KT P6SM FEW060
     FM171000 20007KT P6SM BKN012
     FM171400 24013KT P6SM BKN025
     FM171700 24012KT P6SM SCT040 PROB30 1719/1723 TSRA BKN035CB=

USA.gov is the U.S. government's official web portal to all federal, state and local government web resources and services.